sensor_id;sensor_type;location;lat;lon;timestamp;P1;durP1;ratioP1;P2;durP2;ratioP2
50851;SDS011;43953;45.508;-122.806;2023-04-24T00:00:11;7.82;;;3.90;;
50851;SDS011;43953;45.508;-122.806;2023-04-24T00:00:45;7.80;;;4.00;;
50851;SDS011;43953;45.508;-122.806;2023-04-24T00:01:17;7.95;;;4.05;;
50851;SDS011;43953;45.508;-122.806;2023-04-24T00:01:50;8.93;;;4.32;;
50851;SDS011;43953;45.508;-122.806;2023-04-24T00:02:22;7.75;;;3.50;;
50851;SDS011;43953;45.508;-122.806;2023-04-24T00:02:54;6.85;;;3.58;;
50851;SDS011;43953;45.508;-122.806;2023-04-24T00:03:28;7.18;;;3.72;;
50851;SDS011;43953;45.508;-122.806;2023-04-24T00:04:00;8.20;;;3.90;;
50851;SDS011;43953;45.508;-122.806;2023-04-24T00:04:32;6.70;;;3.78;;
50851;SDS011;43953;45.508;-122.806;2023-04-24T00:05:04;7.57;;;4.15;;
50851;SDS011;43953;45.508;-122.806;2023-04-24T00:05:37;8.20;;;4.25;;
50851;SDS011;43953;45.508;-122.806;2023-04-24T00:06:11;9.27;;;4.05;;
50851;SDS011;43953;45.508;-122.806;2023-04-24T00:06:42;9.52;;;3.92;;
50851;SDS011;43953;45.508;-122.806;2023-04-24T00:07:14;7.28;;;3.72;;
50851;SDS011;43953;45.508;-122.806;2023-04-24T00:07:50;9.57;;;4.20;;
50851;SDS011;43953;45.508;-122.806;2023-04-24T00:08:26;9.00;;;4.18;;
50851;SDS011;43953;45.508;-122.806;2023-04-24T00:08:57;6.18;;;3.70;;
50851;SDS011;43953;45.508;-122.806;2023-04-24T00:09:33;7.20;;;3.90;;
50851;SDS011;43953;45.508;-122.806;2023-04-24T00:10:05;8.43;;;4.03;;
50851;SDS011;43953;45.508;-122.806;2023-04-24T00:10:37;6.90;;;4.00;;
50851;SDS011;43953;45.508;-122.806;2023-04-24T00:11:09;7.78;;;3.90;;
50851;SDS011;43953;45.508;-122.806;2023-04-24T00:11:40;6.90;;;3.85;;
50851;SDS011;43953;45.508;-122.806;2023-04-24T00:12:12;9.23;;;3.80;;
50851;SDS011;43953;45.508;-122.806;2023-04-24T00:12:44;7.50;;;4.03;;
50851;SDS011;43953;45.508;-122.806;2023-04-24T00:13:16;6.90;;;3.95;;
50851;SDS011;43953;45.508;-122.806;2023-04-24T00:13:47;7.72;;;4.10;;
50851;SDS011;43953;45.508;-122.806;2023-04-24T00:14:19;8.68;;;4.05;;
50851;SDS011;43953;45.508;-122.806;2023-04-24T00:14:51;6.70;;;4.20;;
50851;SDS011;43953;45.508;-122.806;2023-04-24T00:15:23;8.93;;;4.10;;
50851;SDS011;43953;45.508;-122.806;2023-04-24T00:15:55;8.48;;;3.63;;
50851;SDS011;43953;45.508;-122.806;2023-04-24T00:16:27;5.97;;;3.45;;
50851;SDS011;43953;45.508;-122.806;2023-04-24T00:16:59;6.20;;;3.72;;
50851;SDS011;43953;45.508;-122.806;2023-04-24T00:17:30;8.85;;;4.03;;
50851;SDS011;43953;45.508;-122.806;2023-04-24T00:18:02;9.30;;;4.00;;
50851;SDS011;43953;45.508;-122.806;2023-04-24T00:18:34;8.05;;;4.28;;
50851;SDS011;43953;45.508;-122.806;2023-04-24T00:19:06;8.15;;;3.97;;
50851;SDS011;43953;45.508;-122.806;2023-04-24T00:19:38;9.50;;;4.18;;
50851;SDS011;43953;45.508;-122.806;2023-04-24T00:20:10;8.93;;;3.75;;
50851;SDS011;43953;45.508;-122.806;2023-04-24T00:20:42;9.18;;;4.25;;
50851;SDS011;43953;45.508;-122.806;2023-04-24T00:21:14;6.80;;;3.75;;
50851;SDS011;43953;45.508;-122.806;2023-04-24T00:21:49;8.32;;;4.22;;
50851;SDS011;43953;45.508;-122.806;2023-04-24T00:22:21;7.70;;;4.00;;
50851;SDS011;43953;45.508;-122.806;2023-04-24T00:22:53;5.95;;;3.50;;
50851;SDS011;43953;45.508;-122.806;2023-04-24T00:23:25;6.40;;;4.18;;
50851;SDS011;43953;45.508;-122.806;2023-04-24T00:23:56;7.47;;;3.90;;
50851;SDS011;43953;45.508;-122.806;2023-04-24T00:24:28;7.60;;;3.83;;
50851;SDS011;43953;45.508;-122.806;2023-04-24T00:25:00;9.52;;;4.00;;
50851;SDS011;43953;45.508;-122.806;2023-04-24T00:25:32;6.78;;;3.75;;
50851;SDS011;43953;45.508;-122.806;2023-04-24T00:26:04;5.63;;;3.75;;
50851;SDS011;43953;45.508;-122.806;2023-04-24T00:26:36;5.88;;;4.07;;
50851;SDS011;43953;45.508;-122.806;2023-04-24T00:27:07;7.32;;;3.80;;
50851;SDS011;43953;45.508;-122.806;2023-04-24T00:27:39;7.00;;;3.97;;
50851;SDS011;43953;45.508;-122.806;2023-04-24T00:28:11;10.10;;;4.22;;
50851;SDS011;43953;45.508;-122.806;2023-04-24T00:28:42;8.93;;;4.00;;
50851;SDS011;43953;45.508;-122.806;2023-04-24T00:29:14;9.35;;;4.18;;
50851;SDS011;43953;45.508;-122.806;2023-04-24T00:29:46;7.22;;;4.20;;
50851;SDS011;43953;45.508;-122.806;2023-04-24T00:30:18;10.00;;;4.18;;
50851;SDS011;43953;45.508;-122.806;2023-04-24T00:30:49;9.07;;;3.80;;
50851;SDS011;43953;45.508;-122.806;2023-04-24T00:31:21;9.57;;;4.63;;
50851;SDS011;43953;45.508;-122.806;2023-04-24T00:31:55;9.63;;;4.63;;
50851;SDS011;43953;45.508;-122.806;2023-04-24T00:32:26;8.68;;;4.55;;
50851;SDS011;43953;45.508;-122.806;2023-04-24T00:32:58;11.00;;;4.50;;
50851;SDS011;43953;45.508;-122.806;2023-04-24T00:33:30;9.10;;;4.47;;
50851;SDS011;43953;45.508;-122.806;2023-04-24T00:34:02;10.48;;;4.50;;
50851;SDS011;43953;45.508;-122.806;2023-04-24T00:34:34;8.93;;;4.47;;
50851;SDS011;43953;45.508;-122.806;2023-04-24T00:35:06;8.23;;;4.47;;
50851;SDS011;43953;45.508;-122.806;2023-04-24T00:35:38;10.10;;;4.78;;
50851;SDS011;43953;45.508;-122.806;2023-04-24T00:36:10;10.70;;;4.47;;
50851;SDS011;43953;45.508;-122.806;2023-04-24T00:36:42;8.57;;;4.30;;
50851;SDS011;43953;45.508;-122.806;2023-04-24T00:37:14;8.15;;;4.38;;
50851;SDS011;43953;45.508;-122.806;2023-04-24T00:37:46;12.52;;;4.53;;
50851;SDS011;43953;45.508;-122.806;2023-04-24T00:38:18;8.80;;;4.45;;
50851;SDS011;43953;45.508;-122.806;2023-04-24T00:38:50;12.13;;;4.90;;
50851;SDS011;43953;45.508;-122.806;2023-04-24T00:39:21;9.60;;;4.35;;
50851;SDS011;43953;45.508;-122.806;2023-04-24T00:39:54;10.63;;;4.72;;
50851;SDS011;43953;45.508;-122.806;2023-04-24T00:40:26;8.27;;;4.07;;
50851;SDS011;43953;45.508;-122.806;2023-04-24T00:40:59;7.72;;;4.15;;
50851;SDS011;43953;45.508;-122.806;2023-04-24T00:41:30;8.60;;;4.25;;
50851;SDS011;43953;45.508;-122.806;2023-04-24T00:42:02;9.40;;;4.57;;
50851;SDS011;43953;45.508;-122.806;2023-04-24T00:42:37;8.57;;;4.20;;
50851;SDS011;43953;45.508;-122.806;2023-04-24T00:43:10;8.20;;;4.38;;
50851;SDS011;43953;45.508;-122.806;2023-04-24T00:43:42;8.63;;;3.92;;
50851;SDS011;43953;45.508;-122.806;2023-04-24T00:44:14;10.82;;;4.35;;
50851;SDS011;43953;45.508;-122.806;2023-04-24T00:44:46;11.07;;;4.18;;
50851;SDS011;43953;45.508;-122.806;2023-04-24T00:45:18;8.00;;;4.57;;
50851;SDS011;43953;45.508;-122.806;2023-04-24T00:45:50;7.60;;;3.75;;
50851;SDS011;43953;45.508;-122.806;2023-04-24T00:46:22;8.35;;;4.43;;
50851;SDS011;43953;45.508;-122.806;2023-04-24T00:46:54;10.43;;;4.32;;
50851;SDS011;43953;45.508;-122.806;2023-04-24T00:47:26;8.02;;;4.30;;
50851;SDS011;43953;45.508;-122.806;2023-04-24T00:47:59;9.00;;;4.45;;
50851;SDS011;43953;45.508;-122.806;2023-04-24T00:48:31;10.60;;;4.63;;
50851;SDS011;43953;45.508;-122.806;2023-04-24T00:49:04;10.73;;;4.45;;
50851;SDS011;43953;45.508;-122.806;2023-04-24T00:49:36;8.18;;;4.40;;
50851;SDS011;43953;45.508;-122.806;2023-04-24T00:50:08;11.02;;;4.20;;
50851;SDS011;43953;45.508;-122.806;2023-04-24T00:50:42;9.25;;;4.32;;
50851;SDS011;43953;45.508;-122.806;2023-04-24T00:51:13;8.20;;;4.53;;
50851;SDS011;43953;45.508;-122.806;2023-04-24T00:51:45;7.82;;;4.25;;
50851;SDS011;43953;45.508;-122.806;2023-04-24T00:52:17;8.93;;;4.20;;
50851;SDS011;43953;45.508;-122.806;2023-04-24T00:52:49;11.18;;;4.22;;
50851;SDS011;43953;45.508;-122.806;2023-04-24T00:53:21;9.30;;;4.25;;
50851;SDS011;43953;45.508;-122.806;2023-04-24T00:53:53;7.78;;;4.47;;
50851;SDS011;43953;45.508;-122.806;2023-04-24T00:54:25;8.95;;;4.20;;
50851;SDS011;43953;45.508;-122.806;2023-04-24T00:54:57;7.57;;;4.30;;
50851;SDS011;43953;45.508;-122.806;2023-04-24T00:55:29;9.35;;;4.75;;
50851;SDS011;43953;45.508;-122.806;2023-04-24T00:56:02;9.85;;;4.63;;
50851;SDS011;43953;45.508;-122.806;2023-04-24T00:56:35;8.80;;;4.75;;
50851;SDS011;43953;45.508;-122.806;2023-04-24T00:57:07;10.80;;;4.68;;
50851;SDS011;43953;45.508;-122.806;2023-04-24T00:57:39;8.82;;;4.50;;
50851;SDS011;43953;45.508;-122.806;2023-04-24T00:58:11;6.65;;;4.55;;
50851;SDS011;43953;45.508;-122.806;2023-04-24T00:58:43;7.72;;;4.63;;
50851;SDS011;43953;45.508;-122.806;2023-04-24T00:59:16;9.15;;;4.57;;
50851;SDS011;43953;45.508;-122.806;2023-04-24T00:59:48;9.30;;;4.85;;
50851;SDS011;43953;45.508;-122.806;2023-04-24T01:00:21;10.55;;;4.90;;
50851;SDS011;43953;45.508;-122.806;2023-04-24T01:00:53;8.05;;;4.53;;
50851;SDS011;43953;45.508;-122.806;2023-04-24T01:01:26;10.13;;;4.65;;
50851;SDS011;43953;45.508;-122.806;2023-04-24T01:01:57;10.23;;;4.72;;
50851;SDS011;43953;45.508;-122.806;2023-04-24T01:02:29;10.65;;;4.53;;
50851;SDS011;43953;45.508;-122.806;2023-04-24T01:03:01;11.07;;;4.65;;
50851;SDS011;43953;45.508;-122.806;2023-04-24T01:03:36;7.22;;;4.00;;
50851;SDS011;43953;45.508;-122.806;2023-04-24T01:04:09;9.73;;;4.90;;
50851;SDS011;43953;45.508;-122.806;2023-04-24T01:04:42;8.40;;;4.82;;
50851;SDS011;43953;45.508;-122.806;2023-04-24T01:05:14;10.90;;;4.72;;
50851;SDS011;43953;45.508;-122.806;2023-04-24T01:05:48;8.85;;;4.57;;
50851;SDS011;43953;45.508;-122.806;2023-04-24T01:06:21;9.23;;;4.85;;
50851;SDS011;43953;45.508;-122.806;2023-04-24T01:06:53;7.95;;;4.32;;
50851;SDS011;43953;45.508;-122.806;2023-04-24T01:07:26;10.27;;;4.65;;
50851;SDS011;43953;45.508;-122.806;2023-04-24T01:07:58;9.40;;;4.65;;
50851;SDS011;43953;45.508;-122.806;2023-04-24T01:08:30;10.75;;;4.85;;
50851;SDS011;43953;45.508;-122.806;2023-04-24T01:09:02;7.97;;;4.60;;
50851;SDS011;43953;45.508;-122.806;2023-04-24T01:09:35;9.18;;;4.90;;
50851;SDS011;43953;45.508;-122.806;2023-04-24T01:10:11;9.85;;;4.88;;
50851;SDS011;43953;45.508;-122.806;2023-04-24T01:10:44;11.93;;;4.55;;
50851;SDS011;43953;45.508;-122.806;2023-04-24T01:11:17;10.38;;;4.45;;
50851;SDS011;43953;45.508;-122.806;2023-04-24T01:11:50;8.80;;;4.60;;
50851;SDS011;43953;45.508;-122.806;2023-04-24T01:12:22;7.65;;;4.35;;
50851;SDS011;43953;45.508;-122.806;2023-04-24T01:12:53;8.07;;;4.57;;
50851;SDS011;43953;45.508;-122.806;2023-04-24T01:13:26;7.07;;;4.72;;
50851;SDS011;43953;45.508;-122.806;2023-04-24T01:13:58;10.77;;;4.60;;
50851;SDS011;43953;45.508;-122.806;2023-04-24T01:14:30;8.15;;;4.57;;
50851;SDS011;43953;45.508;-122.806;2023-04-24T01:15:02;9.27;;;4.93;;
50851;SDS011;43953;45.508;-122.806;2023-04-24T01:15:35;9.25;;;4.60;;
50851;SDS011;43953;45.508;-122.806;2023-04-24T01:16:06;10.57;;;4.75;;
50851;SDS011;43953;45.508;-122.806;2023-04-24T01:16:38;7.30;;;4.13;;
50851;SDS011;43953;45.508;-122.806;2023-04-24T01:17:10;10.98;;;4.30;;
50851;SDS011;43953;45.508;-122.806;2023-04-24T01:17:42;6.53;;;3.88;;
50851;SDS011;43953;45.508;-122.806;2023-04-24T01:18:14;13.43;;;4.40;;
50851;SDS011;43953;45.508;-122.806;2023-04-24T01:18:47;9.32;;;4.00;;
50851;SDS011;43953;45.508;-122.806;2023-04-24T01:19:19;5.88;;;4.13;;
50851;SDS011;43953;45.508;-122.806;2023-04-24T01:19:51;8.52;;;3.85;;
50851;SDS011;43953;45.508;-122.806;2023-04-24T01:20:27;6.60;;;4.13;;
50851;SDS011;43953;45.508;-122.806;2023-04-24T01:21:02;6.90;;;3.58;;
50851;SDS011;43953;45.508;-122.806;2023-04-24T01:21:36;7.35;;;3.67;;
50851;SDS011;43953;45.508;-122.806;2023-04-24T01:22:12;8.85;;;3.75;;
50851;SDS011;43953;45.508;-122.806;2023-04-24T01:22:45;8.63;;;4.13;;
50851;SDS011;43953;45.508;-122.806;2023-04-24T01:23:17;4.72;;;3.40;;
50851;SDS011;43953;45.508;-122.806;2023-04-24T01:23:48;6.88;;;3.78;;
50851;SDS011;43953;45.508;-122.806;2023-04-24T01:24:21;7.45;;;3.45;;
50851;SDS011;43953;45.508;-122.806;2023-04-24T01:24:53;7.88;;;3.55;;
50851;SDS011;43953;45.508;-122.806;2023-04-24T01:25:25;8.50;;;3.53;;
50851;SDS011;43953;45.508;-122.806;2023-04-24T01:25:57;7.35;;;3.53;;
50851;SDS011;43953;45.508;-122.806;2023-04-24T01:26:29;8.15;;;3.03;;
50851;SDS011;43953;45.508;-122.806;2023-04-24T01:27:01;10.55;;;3.80;;
50851;SDS011;43953;45.508;-122.806;2023-04-24T01:27:33;6.50;;;3.50;;
50851;SDS011;43953;45.508;-122.806;2023-04-24T01:28:04;6.40;;;2.70;;
50851;SDS011;43953;45.508;-122.806;2023-04-24T01:28:36;5.30;;;2.70;;
50851;SDS011;43953;45.508;-122.806;2023-04-24T01:29:08;5.63;;;3.30;;
50851;SDS011;43953;45.508;-122.806;2023-04-24T01:29:41;6.38;;;2.80;;
50851;SDS011;43953;45.508;-122.806;2023-04-24T01:30:13;6.57;;;3.22;;
50851;SDS011;43953;45.508;-122.806;2023-04-24T01:30:45;6.15;;;3.05;;
50851;SDS011;43953;45.508;-122.806;2023-04-24T01:31:17;4.43;;;2.90;;
50851;SDS011;43953;45.508;-122.806;2023-04-24T01:31:49;6.32;;;2.85;;
50851;SDS011;43953;45.508;-122.806;2023-04-24T01:32:21;8.10;;;3.40;;
50851;SDS011;43953;45.508;-122.806;2023-04-24T01:32:53;7.07;;;3.33;;
50851;SDS011;43953;45.508;-122.806;2023-04-24T01:33:25;5.70;;;3.30;;
50851;SDS011;43953;45.508;-122.806;2023-04-24T01:33:56;7.20;;;3.40;;
50851;SDS011;43953;45.508;-122.806;2023-04-24T01:34:28;11.15;;;3.60;;
50851;SDS011;43953;45.508;-122.806;2023-04-24T01:35:01;7.38;;;3.05;;
50851;SDS011;43953;45.508;-122.806;2023-04-24T01:35:33;7.45;;;3.38;;
50851;SDS011;43953;45.508;-122.806;2023-04-24T01:36:06;6.35;;;3.35;;
50851;SDS011;43953;45.508;-122.806;2023-04-24T01:36:41;8.02;;;3.28;;
50851;SDS011;43953;45.508;-122.806;2023-04-24T01:37:14;6.50;;;2.75;;
50851;SDS011;43953;45.508;-122.806;2023-04-24T01:37:46;7.85;;;3.20;;
50851;SDS011;43953;45.508;-122.806;2023-04-24T01:38:18;4.78;;;2.70;;
50851;SDS011;43953;45.508;-122.806;2023-04-24T01:38:50;6.85;;;3.17;;
50851;SDS011;43953;45.508;-122.806;2023-04-24T01:39:21;5.97;;;3.15;;
50851;SDS011;43953;45.508;-122.806;2023-04-24T01:39:56;5.65;;;3.00;;
50851;SDS011;43953;45.508;-122.806;2023-04-24T01:40:27;6.30;;;2.72;;
50851;SDS011;43953;45.508;-122.806;2023-04-24T01:40:59;4.75;;;3.03;;
50851;SDS011;43953;45.508;-122.806;2023-04-24T01:41:31;3.97;;;2.63;;
50851;SDS011;43953;45.508;-122.806;2023-04-24T01:42:04;5.78;;;2.65;;
50851;SDS011;43953;45.508;-122.806;2023-04-24T01:42:36;5.47;;;2.50;;
50851;SDS011;43953;45.508;-122.806;2023-04-24T01:43:08;4.50;;;2.60;;
50851;SDS011;43953;45.508;-122.806;2023-04-24T01:43:40;6.45;;;2.78;;
50851;SDS011;43953;45.508;-122.806;2023-04-24T01:44:12;5.68;;;2.70;;
50851;SDS011;43953;45.508;-122.806;2023-04-24T01:44:44;5.50;;;2.60;;
50851;SDS011;43953;45.508;-122.806;2023-04-24T01:45:16;5.38;;;2.58;;
50851;SDS011;43953;45.508;-122.806;2023-04-24T01:45:47;6.35;;;2.70;;
50851;SDS011;43953;45.508;-122.806;2023-04-24T01:46:19;5.47;;;2.65;;
50851;SDS011;43953;45.508;-122.806;2023-04-24T01:46:51;6.55;;;2.55;;
50851;SDS011;43953;45.508;-122.806;2023-04-24T01:47:24;4.55;;;2.60;;
50851;SDS011;43953;45.508;-122.806;2023-04-24T01:47:57;5.57;;;2.30;;
50851;SDS011;43953;45.508;-122.806;2023-04-24T01:48:28;6.57;;;2.50;;
50851;SDS011;43953;45.508;-122.806;2023-04-24T01:49:01;5.45;;;2.40;;
50851;SDS011;43953;45.508;-122.806;2023-04-24T01:49:33;6.05;;;2.55;;
50851;SDS011;43953;45.508;-122.806;2023-04-24T01:50:05;5.45;;;2.50;;
50851;SDS011;43953;45.508;-122.806;2023-04-24T01:50:37;4.40;;;2.13;;
50851;SDS011;43953;45.508;-122.806;2023-04-24T01:51:09;5.85;;;2.55;;
50851;SDS011;43953;45.508;-122.806;2023-04-24T01:51:41;4.57;;;2.38;;
50851;SDS011;43953;45.508;-122.806;2023-04-24T01:52:13;5.70;;;2.30;;
50851;SDS011;43953;45.508;-122.806;2023-04-24T01:52:45;4.25;;;2.20;;
50851;SDS011;43953;45.508;-122.806;2023-04-24T01:53:16;5.97;;;2.63;;
50851;SDS011;43953;45.508;-122.806;2023-04-24T01:53:48;4.63;;;2.42;;
50851;SDS011;43953;45.508;-122.806;2023-04-24T01:54:20;6.30;;;2.70;;
50851;SDS011;43953;45.508;-122.806;2023-04-24T01:54:52;5.35;;;2.65;;
50851;SDS011;43953;45.508;-122.806;2023-04-24T01:55:24;6.38;;;2.60;;
50851;SDS011;43953;45.508;-122.806;2023-04-24T01:55:55;4.43;;;2.70;;
50851;SDS011;43953;45.508;-122.806;2023-04-24T01:56:28;4.85;;;2.40;;
50851;SDS011;43953;45.508;-122.806;2023-04-24T01:57:01;5.93;;;2.47;;
50851;SDS011;43953;45.508;-122.806;2023-04-24T01:57:33;6.15;;;2.75;;
50851;SDS011;43953;45.508;-122.806;2023-04-24T01:58:06;5.63;;;2.47;;
50851;SDS011;43953;45.508;-122.806;2023-04-24T01:58:37;5.72;;;2.75;;
50851;SDS011;43953;45.508;-122.806;2023-04-24T01:59:10;6.78;;;2.80;;
50851;SDS011;43953;45.508;-122.806;2023-04-24T01:59:42;5.55;;;2.42;;
50851;SDS011;43953;45.508;-122.806;2023-04-24T02:00:14;5.00;;;2.70;;
50851;SDS011;43953;45.508;-122.806;2023-04-24T02:00:46;4.15;;;2.80;;
50851;SDS011;43953;45.508;-122.806;2023-04-24T02:01:18;4.93;;;2.60;;
50851;SDS011;43953;45.508;-122.806;2023-04-24T02:01:51;5.32;;;2.47;;
50851;SDS011;43953;45.508;-122.806;2023-04-24T02:02:23;7.18;;;2.50;;
50851;SDS011;43953;45.508;-122.806;2023-04-24T02:02:54;7.90;;;2.70;;
50851;SDS011;43953;45.508;-122.806;2023-04-24T02:03:26;4.55;;;2.42;;
50851;SDS011;43953;45.508;-122.806;2023-04-24T02:03:58;7.13;;;2.67;;
50851;SDS011;43953;45.508;-122.806;2023-04-24T02:04:30;3.90;;;2.20;;
50851;SDS011;43953;45.508;-122.806;2023-04-24T02:05:02;4.78;;;2.83;;
50851;SDS011;43953;45.508;-122.806;2023-04-24T02:05:33;4.47;;;2.38;;
50851;SDS011;43953;45.508;-122.806;2023-04-24T02:06:05;5.72;;;2.55;;
50851;SDS011;43953;45.508;-122.806;2023-04-24T02:06:37;6.82;;;2.40;;
50851;SDS011;43953;45.508;-122.806;2023-04-24T02:07:09;6.63;;;2.92;;
50851;SDS011;43953;45.508;-122.806;2023-04-24T02:07:41;6.30;;;2.97;;
50851;SDS011;43953;45.508;-122.806;2023-04-24T02:08:12;5.40;;;2.60;;
50851;SDS011;43953;45.508;-122.806;2023-04-24T02:08:44;5.88;;;3.10;;
50851;SDS011;43953;45.508;-122.806;2023-04-24T02:09:16;4.85;;;2.40;;
50851;SDS011;43953;45.508;-122.806;2023-04-24T02:09:48;6.85;;;3.00;;
50851;SDS011;43953;45.508;-122.806;2023-04-24T02:10:20;5.68;;;2.80;;
50851;SDS011;43953;45.508;-122.806;2023-04-24T02:10:51;6.50;;;2.63;;
50851;SDS011;43953;45.508;-122.806;2023-04-24T02:11:23;7.32;;;2.80;;
50851;SDS011;43953;45.508;-122.806;2023-04-24T02:11:55;7.22;;;2.97;;
50851;SDS011;43953;45.508;-122.806;2023-04-24T02:12:27;6.32;;;2.83;;
50851;SDS011;43953;45.508;-122.806;2023-04-24T02:12:58;6.40;;;2.80;;
50851;SDS011;43953;45.508;-122.806;2023-04-24T02:13:31;7.90;;;3.33;;
50851;SDS011;43953;45.508;-122.806;2023-04-24T02:14:03;6.40;;;2.70;;
50851;SDS011;43953;45.508;-122.806;2023-04-24T02:14:34;6.70;;;2.90;;
50851;SDS011;43953;45.508;-122.806;2023-04-24T02:15:06;5.80;;;2.67;;
50851;SDS011;43953;45.508;-122.806;2023-04-24T02:15:38;6.22;;;2.60;;
50851;SDS011;43953;45.508;-122.806;2023-04-24T02:16:10;5.90;;;2.85;;
50851;SDS011;43953;45.508;-122.806;2023-04-24T02:16:42;7.43;;;2.70;;
50851;SDS011;43953;45.508;-122.806;2023-04-24T02:17:14;9.23;;;3.28;;
50851;SDS011;43953;45.508;-122.806;2023-04-24T02:17:46;6.13;;;2.20;;
50851;SDS011;43953;45.508;-122.806;2023-04-24T02:18:18;4.35;;;2.70;;
50851;SDS011;43953;45.508;-122.806;2023-04-24T02:18:50;5.60;;;2.65;;
50851;SDS011;43953;45.508;-122.806;2023-04-24T02:19:22;7.28;;;3.05;;
50851;SDS011;43953;45.508;-122.806;2023-04-24T02:19:54;6.20;;;2.58;;
50851;SDS011;43953;45.508;-122.806;2023-04-24T02:20:26;5.40;;;2.65;;
50851;SDS011;43953;45.508;-122.806;2023-04-24T02:20:57;6.78;;;2.70;;
50851;SDS011;43953;45.508;-122.806;2023-04-24T02:21:29;5.28;;;2.55;;
50851;SDS011;43953;45.508;-122.806;2023-04-24T02:22:01;7.60;;;3.10;;
50851;SDS011;43953;45.508;-122.806;2023-04-24T02:22:33;6.45;;;2.20;;
50851;SDS011;43953;45.508;-122.806;2023-04-24T02:23:05;3.42;;;2.58;;
50851;SDS011;43953;45.508;-122.806;2023-04-24T02:23:37;5.13;;;2.50;;
50851;SDS011;43953;45.508;-122.806;2023-04-24T02:24:09;5.85;;;2.83;;
50851;SDS011;43953;45.508;-122.806;2023-04-24T02:24:40;4.50;;;2.10;;
50851;SDS011;43953;45.508;-122.806;2023-04-24T02:25:13;6.57;;;2.67;;
50851;SDS011;43953;45.508;-122.806;2023-04-24T02:25:45;6.18;;;2.72;;
50851;SDS011;43953;45.508;-122.806;2023-04-24T02:26:16;4.65;;;2.50;;
50851;SDS011;43953;45.508;-122.806;2023-04-24T02:26:49;5.35;;;2.50;;
50851;SDS011;43953;45.508;-122.806;2023-04-24T02:27:21;5.88;;;2.75;;
50851;SDS011;43953;45.508;-122.806;2023-04-24T02:27:52;4.57;;;2.50;;
50851;SDS011;43953;45.508;-122.806;2023-04-24T02:28:24;6.57;;;2.78;;
50851;SDS011;43953;45.508;-122.806;2023-04-24T02:28:56;7.47;;;2.45;;
50851;SDS011;43953;45.508;-122.806;2023-04-24T02:29:28;4.10;;;2.63;;
50851;SDS011;43953;45.508;-122.806;2023-04-24T02:30:00;4.20;;;2.28;;
50851;SDS011;43953;45.508;-122.806;2023-04-24T02:30:32;5.82;;;3.05;;
50851;SDS011;43953;45.508;-122.806;2023-04-24T02:31:03;4.45;;;2.70;;
50851;SDS011;43953;45.508;-122.806;2023-04-24T02:31:36;5.80;;;2.72;;
50851;SDS011;43953;45.508;-122.806;2023-04-24T02:32:08;4.50;;;2.03;;
50851;SDS011;43953;45.508;-122.806;2023-04-24T02:32:42;4.60;;;2.75;;
50851;SDS011;43953;45.508;-122.806;2023-04-24T02:33:14;6.13;;;2.35;;
50851;SDS011;43953;45.508;-122.806;2023-04-24T02:33:46;6.35;;;2.80;;
50851;SDS011;43953;45.508;-122.806;2023-04-24T02:34:18;4.85;;;2.40;;
50851;SDS011;43953;45.508;-122.806;2023-04-24T02:34:50;7.80;;;2.90;;
50851;SDS011;43953;45.508;-122.806;2023-04-24T02:35:22;5.45;;;2.60;;
50851;SDS011;43953;45.508;-122.806;2023-04-24T02:35:53;4.45;;;2.60;;
50851;SDS011;43953;45.508;-122.806;2023-04-24T02:36:25;4.65;;;2.60;;
50851;SDS011;43953;45.508;-122.806;2023-04-24T02:36:57;4.30;;;2.60;;
50851;SDS011;43953;45.508;-122.806;2023-04-24T02:37:29;5.20;;;2.88;;
50851;SDS011;43953;45.508;-122.806;2023-04-24T02:38:00;5.95;;;2.67;;
50851;SDS011;43953;45.508;-122.806;2023-04-24T02:38:32;6.13;;;2.75;;
50851;SDS011;43953;45.508;-122.806;2023-04-24T02:39:04;6.88;;;3.42;;
50851;SDS011;43953;45.508;-122.806;2023-04-24T02:39:36;6.80;;;3.47;;
50851;SDS011;43953;45.508;-122.806;2023-04-24T02:40:08;6.22;;;3.00;;
50851;SDS011;43953;45.508;-122.806;2023-04-24T02:40:40;5.97;;;3.20;;
50851;SDS011;43953;45.508;-122.806;2023-04-24T02:41:12;7.80;;;3.20;;
50851;SDS011;43953;45.508;-122.806;2023-04-24T02:41:43;5.65;;;3.50;;
50851;SDS011;43953;45.508;-122.806;2023-04-24T02:42:15;7.03;;;3.53;;
50851;SDS011;43953;45.508;-122.806;2023-04-24T02:42:47;5.43;;;3.20;;
50851;SDS011;43953;45.508;-122.806;2023-04-24T02:43:19;5.82;;;3.65;;
50851;SDS011;43953;45.508;-122.806;2023-04-24T02:43:51;6.05;;;3.42;;
50851;SDS011;43953;45.508;-122.806;2023-04-24T02:44:22;4.53;;;3.20;;
50851;SDS011;43953;45.508;-122.806;2023-04-24T02:44:54;6.90;;;3.58;;
50851;SDS011;43953;45.508;-122.806;2023-04-24T02:45:26;5.15;;;3.30;;
50851;SDS011;43953;45.508;-122.806;2023-04-24T02:45:57;4.47;;;2.85;;
50851;SDS011;43953;45.508;-122.806;2023-04-24T02:46:29;7.30;;;3.05;;
50851;SDS011;43953;45.508;-122.806;2023-04-24T02:47:01;6.55;;;3.13;;
50851;SDS011;43953;45.508;-122.806;2023-04-24T02:47:34;5.88;;;3.30;;
50851;SDS011;43953;45.508;-122.806;2023-04-24T02:48:05;4.53;;;2.60;;
50851;SDS011;43953;45.508;-122.806;2023-04-24T02:48:37;4.85;;;2.90;;
50851;SDS011;43953;45.508;-122.806;2023-04-24T02:49:09;5.45;;;2.78;;
50851;SDS011;43953;45.508;-122.806;2023-04-24T02:49:42;5.88;;;2.50;;
50851;SDS011;43953;45.508;-122.806;2023-04-24T02:50:14;4.97;;;2.78;;
50851;SDS011;43953;45.508;-122.806;2023-04-24T02:50:46;4.10;;;2.38;;
50851;SDS011;43953;45.508;-122.806;2023-04-24T02:51:18;4.80;;;2.78;;
50851;SDS011;43953;45.508;-122.806;2023-04-24T02:51:50;4.50;;;2.40;;
50851;SDS011;43953;45.508;-122.806;2023-04-24T02:52:21;7.13;;;2.65;;
50851;SDS011;43953;45.508;-122.806;2023-04-24T02:52:53;8.05;;;3.00;;
50851;SDS011;43953;45.508;-122.806;2023-04-24T02:53:25;4.97;;;2.65;;
50851;SDS011;43953;45.508;-122.806;2023-04-24T02:53:56;4.80;;;2.72;;
50851;SDS011;43953;45.508;-122.806;2023-04-24T02:54:28;6.57;;;2.60;;
50851;SDS011;43953;45.508;-122.806;2023-04-24T02:55:00;4.72;;;2.70;;
50851;SDS011;43953;45.508;-122.806;2023-04-24T02:55:32;8.55;;;2.70;;
50851;SDS011;43953;45.508;-122.806;2023-04-24T02:56:03;5.22;;;2.38;;
50851;SDS011;43953;45.508;-122.806;2023-04-24T02:56:36;6.03;;;2.90;;
50851;SDS011;43953;45.508;-122.806;2023-04-24T02:57:07;4.03;;;2.40;;
50851;SDS011;43953;45.508;-122.806;2023-04-24T02:57:39;6.60;;;2.63;;
50851;SDS011;43953;45.508;-122.806;2023-04-24T02:58:11;4.57;;;2.47;;
50851;SDS011;43953;45.508;-122.806;2023-04-24T02:58:43;3.97;;;2.42;;
50851;SDS011;43953;45.508;-122.806;2023-04-24T02:59:15;4.78;;;2.50;;
50851;SDS011;43953;45.508;-122.806;2023-04-24T02:59:47;4.00;;;2.40;;
50851;SDS011;43953;45.508;-122.806;2023-04-24T03:00:19;5.47;;;2.60;;
50851;SDS011;43953;45.508;-122.806;2023-04-24T03:00:54;7.00;;;2.65;;
50851;SDS011;43953;45.508;-122.806;2023-04-24T03:01:26;5.13;;;2.50;;
50851;SDS011;43953;45.508;-122.806;2023-04-24T03:01:58;5.18;;;2.60;;
50851;SDS011;43953;45.508;-122.806;2023-04-24T03:02:30;4.60;;;2.60;;
50851;SDS011;43953;45.508;-122.806;2023-04-24T03:03:02;5.32;;;2.50;;
50851;SDS011;43953;45.508;-122.806;2023-04-24T03:03:33;5.03;;;2.78;;
50851;SDS011;43953;45.508;-122.806;2023-04-24T03:04:05;5.53;;;2.70;;
50851;SDS011;43953;45.508;-122.806;2023-04-24T03:04:37;5.78;;;2.88;;
50851;SDS011;43953;45.508;-122.806;2023-04-24T03:05:10;4.25;;;2.45;;